createdAt,value
2019-03-28T00:00:10.263Z,31.90
2019-03-28T00:02:39.681Z,35.67
2019-03-28T00:05:09.009Z,43.77
2019-03-28T00:07:38.346Z,32.93
2019-03-28T00:10:08.320Z,31.17
2019-03-28T00:12:37.650Z,30.90
2019-03-28T00:15:08.186Z,27.80
2019-03-28T00:17:37.725Z,29.17
2019-03-28T00:20:07.217Z,39.17
2019-03-28T00:22:38.178Z,34.67
2019-03-28T00:25:09.222Z,36.57
2019-03-28T00:27:38.549Z,33.00
2019-03-28T00:30:08.031Z,30.43
2019-03-28T00:32:37.367Z,34.00
2019-03-28T00:35:07.255Z,32.67
2019-03-28T00:37:36.583Z,29.37
2019-03-28T00:40:07.013Z,33.95
2019-03-28T00:42:36.367Z,33.73
2019-03-28T00:45:08.093Z,30.60
2019-03-28T00:47:37.503Z,33.67
2019-03-28T00:50:08.294Z,33.93
2019-03-28T00:52:37.806Z,31.17
2019-03-28T00:55:07.301Z,34.03
2019-03-28T00:57:36.624Z,32.73
2019-03-28T01:00:06.806Z,31.48
2019-03-28T01:02:36.210Z,27.83
2019-03-28T01:05:07.862Z,29.42
2019-03-28T01:07:37.214Z,28.10
2019-03-28T01:10:06.879Z,26.67
2019-03-28T01:12:36.217Z,29.30
2019-03-28T01:15:07.772Z,31.85
2019-03-28T01:17:37.120Z,26.47
2019-03-28T01:20:07.790Z,26.43
2019-03-28T01:22:37.117Z,28.10
2019-03-28T01:25:06.593Z,30.70
2019-03-28T01:27:35.926Z,28.07
2019-03-28T01:30:07.911Z,21.90
2019-03-28T01:32:37.229Z,28.40
2019-03-28T01:35:06.806Z,28.17
2019-03-28T01:37:36.133Z,27.07
2019-03-28T01:40:07.022Z,22.62
2019-03-28T01:42:36.362Z,26.73
2019-03-28T01:45:06.848Z,29.05
2019-03-28T01:47:36.178Z,24.20
2019-03-28T01:50:06.735Z,27.90
2019-03-28T01:52:36.077Z,28.57
2019-03-28T01:55:07.642Z,29.02
2019-03-28T01:57:36.993Z,36.23
2019-03-28T02:00:09.772Z,31.03
2019-03-28T02:02:39.102Z,30.80
2019-03-28T02:05:08.582Z,31.03
2019-03-28T02:07:37.987Z,34.37
2019-03-28T02:10:07.591Z,38.37
2019-03-28T02:12:36.991Z,28.63
2019-03-28T02:15:08.769Z,37.40
2019-03-28T02:17:38.105Z,37.20
2019-03-28T02:20:08.083Z,40.20
2019-03-28T02:22:37.418Z,34.33
2019-03-28T02:25:07.378Z,35.33
2019-03-28T02:27:36.723Z,35.03
2019-03-28T02:30:07.649Z,32.30
2019-03-28T02:32:36.970Z,30.47
2019-03-28T02:35:06.662Z,30.73
2019-03-28T02:37:35.995Z,34.10
2019-03-28T02:40:07.409Z,32.03
2019-03-28T02:42:36.812Z,31.77
2019-03-28T02:45:07.874Z,39.15
2019-03-28T02:47:37.221Z,37.73
2019-03-28T02:50:08.099Z,30.47
2019-03-28T02:52:37.431Z,31.30
2019-03-28T02:55:07.303Z,26.43
2019-03-28T02:57:41.530Z,28.50
2019-03-28T03:00:08.865Z,29.50
2019-03-28T03:02:38.238Z,34.83
2019-03-28T03:05:08.509Z,24.40
2019-03-28T03:07:37.848Z,27.03
2019-03-28T03:10:10.171Z,26.63
2019-03-28T03:12:39.518Z,26.53
2019-03-28T03:15:09.729Z,30.13
2019-03-28T03:17:39.086Z,27.30
2019-03-28T03:20:09.072Z,25.83
2019-03-28T03:22:38.407Z,25.87
2019-03-28T03:25:08.323Z,29.37
2019-03-28T03:27:38.038Z,36.53
2019-03-28T03:30:09.355Z,26.37
2019-03-28T03:32:38.823Z,31.50
2019-03-28T03:35:08.551Z,27.63
2019-03-28T03:37:37.881Z,23.20
2019-03-28T03:40:08.671Z,28.80
2019-03-28T03:42:38.000Z,27.63
2019-03-28T03:45:09.672Z,24.10
2019-03-28T03:47:39.171Z,30.63
2019-03-28T03:50:09.157Z,26.93
2019-03-28T03:52:38.499Z,34.60
2019-03-28T03:55:07.832Z,26.63
2019-03-28T03:57:37.157Z,24.83
2019-03-28T04:00:07.230Z,25.87
2019-03-28T04:02:36.664Z,34.73
2019-03-28T04:05:06.923Z,26.23
2019-03-28T04:07:36.269Z,34.77
2019-03-28T04:10:06.712Z,33.83
2019-03-28T04:12:36.167Z,30.67
2019-03-28T04:15:06.484Z,36.23
2019-03-28T04:17:35.825Z,37.67
2019-03-28T04:20:07.405Z,31.03
2019-03-28T04:22:37.171Z,29.03
2019-03-28T04:25:06.919Z,26.33
2019-03-28T04:27:36.434Z,36.70
2019-03-28T04:30:09.650Z,34.92
2019-03-28T04:32:38.978Z,28.10
2019-03-28T04:35:08.319Z,32.03
2019-03-28T04:37:37.662Z,30.57
2019-03-28T04:40:08.481Z,32.97
2019-03-28T04:42:38.250Z,31.23
2019-03-28T04:45:07.819Z,30.17
2019-03-28T04:47:37.174Z,26.80
2019-03-28T04:50:07.747Z,30.77
2019-03-28T04:52:37.092Z,27.67
2019-03-28T04:55:06.849Z,32.53
2019-03-28T04:57:36.186Z,33.40
2019-03-28T05:00:07.950Z,27.52
2019-03-28T05:02:37.286Z,29.87
2019-03-28T05:05:07.261Z,34.67
2019-03-28T05:07:36.590Z,24.10
2019-03-28T05:10:09.918Z,23.25
2019-03-28T05:12:39.212Z,31.57
2019-03-28T05:15:10.617Z,32.10
2019-03-28T05:17:40.505Z,27.03
2019-03-28T05:20:13.095Z,30.77
2019-03-28T05:22:41.830Z,35.83
2019-03-28T05:25:11.390Z,34.67
2019-03-28T05:27:40.721Z,36.40
2019-03-28T05:30:11.513Z,28.40
2019-03-28T05:32:40.920Z,37.83
2019-03-28T05:35:10.314Z,32.97
2019-03-28T05:37:39.645Z,31.57
2019-03-28T05:40:09.219Z,31.30
2019-03-28T05:42:38.566Z,37.60
2019-03-28T05:45:07.962Z,33.90
2019-03-28T05:47:37.298Z,36.67
2019-03-28T05:50:09.667Z,30.17
2019-03-28T05:52:38.995Z,38.00
2019-03-28T05:55:08.557Z,29.00
2019-03-28T05:57:37.898Z,28.87
2019-03-28T06:00:07.861Z,30.00
2019-03-28T06:02:37.195Z,37.40
2019-03-28T06:05:08.061Z,28.77
2019-03-28T06:07:37.410Z,28.80
2019-03-28T06:10:08.173Z,30.63
2019-03-28T06:12:37.510Z,28.53
2019-03-28T06:15:07.287Z,32.03
2019-03-28T06:17:36.618Z,30.03
2019-03-28T06:20:06.980Z,28.83
2019-03-28T06:22:36.310Z,32.40
2019-03-28T06:25:06.484Z,36.20
2019-03-28T06:27:35.833Z,30.23
2019-03-28T06:30:07.826Z,28.07
2019-03-28T06:32:42.711Z,26.60
2019-03-28T06:35:08.433Z,26.50
2019-03-28T06:37:37.764Z,28.27
2019-03-28T06:40:07.556Z,31.33
2019-03-28T06:42:36.866Z,33.93
2019-03-28T06:45:07.173Z,32.90
2019-03-28T06:47:36.583Z,32.27
2019-03-28T06:50:07.078Z,30.25
2019-03-28T06:52:36.406Z,26.83
2019-03-28T06:55:06.613Z,29.45
2019-03-28T06:57:35.946Z,24.30
2019-03-28T07:00:11.490Z,26.93
2019-03-28T07:02:40.845Z,32.63
2019-03-28T07:05:10.577Z,30.30
2019-03-28T07:07:39.946Z,26.97
2019-03-28T07:10:10.612Z,25.17
2019-03-28T07:12:40.271Z,29.80
2019-03-28T07:15:10.108Z,34.90
2019-03-28T07:17:39.486Z,28.67
2019-03-28T07:20:09.543Z,31.00
2019-03-28T07:22:38.895Z,28.40
2019-03-28T07:25:08.570Z,30.03
2019-03-28T07:27:37.905Z,32.00
2019-03-28T07:30:09.553Z,30.87
2019-03-28T07:32:38.958Z,27.47
2019-03-28T07:35:08.438Z,24.20
2019-03-28T07:37:38.465Z,41.83
2019-03-28T07:40:08.301Z,29.87
2019-03-28T07:42:37.633Z,36.33
2019-03-28T07:45:08.510Z,27.70
2019-03-28T07:47:38.215Z,28.50
2019-03-28T07:50:09.783Z,29.77
2019-03-28T07:52:39.120Z,29.47
2019-03-28T07:55:08.793Z,30.13
2019-03-28T07:57:38.122Z,26.83
2019-03-28T08:00:09.854Z,25.33
2019-03-28T08:02:39.200Z,30.33
2019-03-28T08:05:09.582Z,29.30
2019-03-28T08:07:44.942Z,31.90
2019-03-28T08:10:10.373Z,32.27
2019-03-28T08:12:39.715Z,30.20
2019-03-28T08:15:09.441Z,26.07
2019-03-28T08:17:38.881Z,37.13
2019-03-28T08:20:10.967Z,30.83
2019-03-28T08:22:40.295Z,29.67
2019-03-28T08:25:12.281Z,26.40
2019-03-28T08:27:42.461Z,25.90
2019-03-28T08:30:18.838Z,22.03
2019-03-28T08:32:43.554Z,28.30
2019-03-28T08:35:13.071Z,32.40
2019-03-28T08:37:42.743Z,34.40
2019-03-28T08:40:15.163Z,24.97
2019-03-28T08:42:44.501Z,24.27
2019-03-28T08:45:13.985Z,25.23
2019-03-28T08:47:43.326Z,23.67
2019-03-28T08:50:12.736Z,24.00
2019-03-28T08:52:42.083Z,27.20
2019-03-28T08:55:11.562Z,19.00
2019-03-28T08:57:40.921Z,24.53
2019-03-28T09:00:11.562Z,20.23
2019-03-28T09:02:40.904Z,22.33
2019-03-28T09:05:10.247Z,24.20
2019-03-28T09:07:39.600Z,19.30
2019-03-28T09:10:09.332Z,21.37
2019-03-28T09:12:38.784Z,19.80
2019-03-28T09:15:09.854Z,23.13
2019-03-28T09:17:39.194Z,23.23
2019-03-28T09:20:09.182Z,22.73
2019-03-28T09:22:39.115Z,23.33
2019-03-28T09:25:08.710Z,20.20
2019-03-28T09:27:38.042Z,24.67
2019-03-28T09:30:09.403Z,22.27
2019-03-28T09:32:38.743Z,29.10
2019-03-28T09:35:09.729Z,60.37
2019-03-28T09:37:39.072Z,59.00
2019-03-28T09:40:08.490Z,52.17
2019-03-28T09:42:37.830Z,38.60
2019-03-28T09:45:07.597Z,72.27
2019-03-28T09:47:36.946Z,92.80
2019-03-28T09:50:07.513Z,106.87
2019-03-28T09:52:36.854Z,84.43
2019-03-28T09:55:06.737Z,47.13
2019-03-28T09:57:36.072Z,66.00
2019-03-28T10:00:08.875Z,99.63
2019-03-28T10:02:38.210Z,63.17
2019-03-28T10:05:08.691Z,70.17
2019-03-28T10:07:38.661Z,54.93
2019-03-28T10:10:09.278Z,41.20
2019-03-28T10:12:38.802Z,43.63
2019-03-28T10:15:08.486Z,93.73
2019-03-28T10:17:37.819Z,69.43
2019-03-28T10:20:07.694Z,25.50
2019-03-28T10:22:37.038Z,34.43
2019-03-28T10:25:07.817Z,30.07
2019-03-28T10:27:37.422Z,21.20
2019-03-28T10:30:08.415Z,25.37
2019-03-28T10:32:37.740Z,22.03
2019-03-28T10:35:08.150Z,30.20
2019-03-28T10:37:37.491Z,28.03
2019-03-28T10:40:08.182Z,22.47
2019-03-28T10:42:37.522Z,30.80
2019-03-28T10:45:07.139Z,24.17
2019-03-28T10:47:36.474Z,20.47
2019-03-28T10:50:06.956Z,23.62
2019-03-28T10:52:36.313Z,21.57
2019-03-28T10:55:06.289Z,23.60
2019-03-28T10:57:35.694Z,19.97
2019-03-28T11:00:08.099Z,11.20
2019-03-28T11:02:38.700Z,14.90
2019-03-28T11:05:08.258Z,13.53
2019-03-28T11:07:37.586Z,13.50
2019-03-28T11:10:08.152Z,14.53
2019-03-28T11:12:37.502Z,11.87
2019-03-28T11:15:07.199Z,9.93
2019-03-28T11:17:36.531Z,12.13
2019-03-28T11:20:07.134Z,10.78
2019-03-28T11:22:36.945Z,9.43
2019-03-28T11:25:07.038Z,7.37
2019-03-28T11:27:36.361Z,9.30
2019-03-28T11:30:07.928Z,9.65
2019-03-28T11:32:37.271Z,9.97
2019-03-28T11:35:07.744Z,8.23
2019-03-28T11:37:37.394Z,7.50
2019-03-28T11:40:09.361Z,7.63
2019-03-28T11:42:38.930Z,7.57
2019-03-28T11:45:09.444Z,6.03
2019-03-28T11:47:39.265Z,8.37
2019-03-28T11:50:10.515Z,6.60
2019-03-28T11:52:42.564Z,6.73
2019-03-28T11:55:11.203Z,8.33
2019-03-28T11:57:40.543Z,6.93
2019-03-28T12:00:15.290Z,10.37
2019-03-28T12:02:44.625Z,6.27
2019-03-28T12:05:14.201Z,9.20
2019-03-28T12:07:43.522Z,9.73
2019-03-28T12:10:13.191Z,7.70
2019-03-28T12:12:42.513Z,6.83
2019-03-28T12:15:12.890Z,8.03
2019-03-28T12:17:42.222Z,6.87
2019-03-28T12:20:11.620Z,7.33
2019-03-28T12:22:40.957Z,7.73
2019-03-28T12:25:10.422Z,8.00
2019-03-28T12:27:39.831Z,8.13
2019-03-28T12:30:15.548Z,6.70
2019-03-28T12:32:43.273Z,5.80
2019-03-28T12:35:12.844Z,6.53
2019-03-28T12:37:42.179Z,8.43
2019-03-28T12:40:11.913Z,5.77
2019-03-28T12:42:41.273Z,8.67
2019-03-28T12:45:11.862Z,7.23
2019-03-28T12:47:43.058Z,6.03
2019-03-28T12:50:13.398Z,6.07
2019-03-28T12:52:42.806Z,6.80
2019-03-28T12:55:12.311Z,7.70
2019-03-28T12:57:41.641Z,6.83
2019-03-28T13:00:12.224Z,5.70
2019-03-28T13:02:41.542Z,6.03
2019-03-28T13:05:11.185Z,6.50
2019-03-28T13:07:40.513Z,6.47
2019-03-28T13:10:10.986Z,7.03
2019-03-28T13:12:40.319Z,4.73
2019-03-28T13:15:09.886Z,5.17
2019-03-28T13:17:39.209Z,4.63
2019-03-28T13:20:09.682Z,5.53
2019-03-28T13:22:39.019Z,7.87
2019-03-28T13:25:08.587Z,7.13
2019-03-28T13:27:37.928Z,5.80
2019-03-28T13:30:10.089Z,5.00
2019-03-28T13:32:42.079Z,7.27
2019-03-28T13:35:10.671Z,8.30
2019-03-28T13:37:40.117Z,4.77
2019-03-28T13:40:09.989Z,7.17
2019-03-28T13:42:39.280Z,6.30
2019-03-28T13:45:09.806Z,4.47
2019-03-28T13:47:39.129Z,5.77
2019-03-28T13:50:09.217Z,5.53
2019-03-28T13:52:38.550Z,5.40
2019-03-28T13:55:08.018Z,4.63
2019-03-28T13:57:37.384Z,6.13
2019-03-28T14:00:07.917Z,4.63
2019-03-28T14:02:37.255Z,5.57
2019-03-28T14:05:07.524Z,3.67
2019-03-28T14:07:37.026Z,6.97
2019-03-28T14:10:08.013Z,6.60
2019-03-28T14:12:38.268Z,4.77
2019-03-28T14:15:07.948Z,5.20
2019-03-28T14:17:37.280Z,8.33
2019-03-28T14:20:07.177Z,5.00
2019-03-28T14:22:36.507Z,7.97
2019-03-28T14:25:08.191Z,6.78
2019-03-28T14:27:37.561Z,9.50
2019-03-28T14:30:09.722Z,8.00
2019-03-28T14:32:52.071Z,8.30
2019-03-28T14:35:10.329Z,10.70
2019-03-28T14:37:40.862Z,8.33
2019-03-28T14:40:11.190Z,6.40
2019-03-28T14:42:41.403Z,7.23
2019-03-28T14:45:11.297Z,9.83
2019-03-28T14:47:40.643Z,7.73
2019-03-28T14:50:12.105Z,8.43
2019-03-28T14:52:41.437Z,9.33
2019-03-28T14:55:10.937Z,13.07
2019-03-28T14:57:40.921Z,6.37
2019-03-28T15:00:22.156Z,7.47
2019-03-28T15:02:51.486Z,7.53
2019-03-28T15:05:20.821Z,5.10
2019-03-28T15:07:50.160Z,11.37
2019-03-28T15:10:19.490Z,12.20
2019-03-28T15:12:48.838Z,10.10
2019-03-28T15:15:18.307Z,6.03
2019-03-28T15:17:47.631Z,6.17
2019-03-28T15:20:16.963Z,11.10
2019-03-28T15:22:46.297Z,11.70
2019-03-28T15:25:15.637Z,7.17
2019-03-28T15:27:44.966Z,4.90
2019-03-28T15:30:14.473Z,7.77
2019-03-28T15:32:43.795Z,10.97
2019-03-28T15:35:13.133Z,12.20
2019-03-28T15:37:42.463Z,6.50
2019-03-28T15:40:12.203Z,7.10
2019-03-28T15:42:41.564Z,9.80
2019-03-28T15:45:11.046Z,10.47
2019-03-28T15:47:40.370Z,8.70
2019-03-28T15:50:10.442Z,8.40
2019-03-28T15:52:39.766Z,6.47
2019-03-28T15:55:09.099Z,7.27
2019-03-28T15:57:40.817Z,7.93
2019-03-28T16:00:10.610Z,8.33
2019-03-28T16:02:39.951Z,10.17
2019-03-28T16:05:09.422Z,5.83
2019-03-28T16:07:38.760Z,11.23
2019-03-28T16:10:08.418Z,9.73
2019-03-28T16:12:37.822Z,5.93
2019-03-28T16:15:07.994Z,10.07
2019-03-28T16:17:37.339Z,6.20
2019-03-28T16:20:07.006Z,7.90
2019-03-28T16:22:36.354Z,7.00
2019-03-28T16:25:07.255Z,8.08
2019-03-28T16:27:36.584Z,9.53
2019-03-28T16:30:09.442Z,9.10
2019-03-28T16:32:38.771Z,5.77
2019-03-28T16:35:08.254Z,7.00
2019-03-28T16:37:37.582Z,7.50
2019-03-28T16:40:07.255Z,5.97
2019-03-28T16:42:36.586Z,6.87
2019-03-28T16:45:08.095Z,10.43
2019-03-28T16:47:37.422Z,5.33
2019-03-28T16:50:07.582Z,9.17
2019-03-28T16:52:36.909Z,7.90
2019-03-28T16:55:07.600Z,7.05
2019-03-28T16:57:37.011Z,5.87
2019-03-28T17:00:12.306Z,6.30
2019-03-28T17:02:41.708Z,7.63
2019-03-28T17:05:11.174Z,7.20
2019-03-28T17:07:40.642Z,10.70
2019-03-28T17:10:11.682Z,8.20
2019-03-28T17:12:41.562Z,8.27
2019-03-28T17:15:11.190Z,7.93
2019-03-28T17:17:40.517Z,8.50
2019-03-28T17:20:09.914Z,10.50
2019-03-28T17:22:39.247Z,8.70
2019-03-28T17:25:08.653Z,11.50
2019-03-28T17:27:37.998Z,12.33
2019-03-28T17:30:07.673Z,10.37
2019-03-28T17:32:37.257Z,14.50
2019-03-28T17:35:07.430Z,17.20
2019-03-28T17:37:36.773Z,13.03
2019-03-28T17:40:07.371Z,15.53
2019-03-28T17:42:36.691Z,12.77
2019-03-28T17:45:07.832Z,17.00
2019-03-28T17:47:37.411Z,12.83
2019-03-28T17:50:09.859Z,15.73
2019-03-28T17:52:39.185Z,15.33
2019-03-28T17:55:08.762Z,18.87
2019-03-28T17:57:38.103Z,17.37
2019-03-28T18:00:08.358Z,15.73
2019-03-28T18:02:37.692Z,15.67
2019-03-28T18:05:09.513Z,19.73
2019-03-28T18:07:38.201Z,18.50
2019-03-28T18:10:08.086Z,18.67
2019-03-28T18:12:37.419Z,20.27
2019-03-28T18:15:07.203Z,18.10
2019-03-28T18:17:36.542Z,16.73
2019-03-28T18:20:08.017Z,18.67
2019-03-28T18:22:37.512Z,18.37
2019-03-28T18:25:08.489Z,19.90
2019-03-28T18:27:37.830Z,19.37
2019-03-28T18:30:09.405Z,19.30
2019-03-28T18:32:39.597Z,17.40
2019-03-28T18:35:09.310Z,22.47
2019-03-28T18:37:39.478Z,18.20
2019-03-28T18:40:09.170Z,21.10
2019-03-28T18:42:38.506Z,16.03
2019-03-28T18:45:08.517Z,19.27
2019-03-28T18:47:37.857Z,18.70
2019-03-28T18:50:07.786Z,17.47
2019-03-28T18:52:37.239Z,24.17
2019-03-28T18:55:08.415Z,19.90
2019-03-28T18:57:37.763Z,17.87
2019-03-28T19:00:07.750Z,20.60
2019-03-28T19:02:37.133Z,15.77
2019-03-28T19:05:18.969Z,17.53
2019-03-28T19:07:38.435Z,17.30
2019-03-28T19:10:08.381Z,22.80
2019-03-28T19:12:37.750Z,17.57
2019-03-28T19:15:08.026Z,15.87
2019-03-28T19:17:37.353Z,18.07
2019-03-28T19:20:10.535Z,18.40
2019-03-28T19:22:39.874Z,14.17
2019-03-28T19:25:09.550Z,21.93
2019-03-28T19:27:39.217Z,15.80
2019-03-28T19:30:09.793Z,15.33
2019-03-28T19:32:39.129Z,22.13
2019-03-28T19:35:10.315Z,15.90
2019-03-28T19:37:40.486Z,14.43
2019-03-28T19:40:11.528Z,17.17
2019-03-28T19:42:40.854Z,14.83
2019-03-28T19:45:10.389Z,23.23
2019-03-28T19:47:40.875Z,14.90
2019-03-28T19:50:13.375Z,19.53
2019-03-28T19:52:42.701Z,14.17
2019-03-28T19:55:15.125Z,18.00
2019-03-28T19:57:44.461Z,11.97
2019-03-28T20:00:13.944Z,12.97
2019-03-28T20:02:43.283Z,16.47
2019-03-28T20:05:12.940Z,20.40
2019-03-28T20:07:45.679Z,23.30
2019-03-28T20:10:16.732Z,18.00
2019-03-28T20:12:45.090Z,15.90
2019-03-28T20:15:14.594Z,17.00
2019-03-28T20:17:44.077Z,14.70
2019-03-28T20:20:15.074Z,16.17
2019-03-28T20:22:45.076Z,19.37
2019-03-28T20:25:14.497Z,19.37
2019-03-28T20:27:43.830Z,16.27
2019-03-28T20:30:13.498Z,18.27
2019-03-28T20:32:42.834Z,16.30
2019-03-28T20:35:12.420Z,16.40
2019-03-28T20:37:41.869Z,14.23
2019-03-28T20:40:11.438Z,18.33
2019-03-28T20:42:40.758Z,16.53
2019-03-28T20:45:11.165Z,18.03
2019-03-28T20:47:40.639Z,14.30
2019-03-28T20:50:10.403Z,16.00
2019-03-28T20:52:39.746Z,16.83
2019-03-28T20:55:09.505Z,15.37
2019-03-28T20:57:40.440Z,16.23
2019-03-28T21:00:10.504Z,12.70
2019-03-28T21:02:39.918Z,16.67
2019-03-28T21:05:09.689Z,22.57
2019-03-28T21:07:39.062Z,13.27
2019-03-28T21:10:11.465Z,13.37
2019-03-28T21:12:40.792Z,19.53
2019-03-28T21:15:10.591Z,15.47
2019-03-28T21:17:39.905Z,14.17
2019-03-28T21:20:10.923Z,18.03
2019-03-28T21:22:40.399Z,16.43
2019-03-28T21:25:09.790Z,14.30
2019-03-28T21:27:39.122Z,16.70
2019-03-28T21:30:09.193Z,13.47
2019-03-28T21:32:38.518Z,17.43
2019-03-28T21:35:07.990Z,17.30
2019-03-28T21:37:37.322Z,10.80
2019-03-28T21:40:07.610Z,15.47
2019-03-28T21:42:36.963Z,15.53
2019-03-28T21:45:06.955Z,15.93
2019-03-28T21:47:36.286Z,19.77
2019-03-28T21:50:07.081Z,19.23
2019-03-28T21:52:36.413Z,17.00
2019-03-28T21:55:07.102Z,12.37
2019-03-28T21:57:37.400Z,13.93
2019-03-28T22:00:08.336Z,13.70
2019-03-28T22:02:37.712Z,12.93
2019-03-28T22:05:07.873Z,11.37
2019-03-28T22:07:37.211Z,17.37
2019-03-28T22:10:08.952Z,15.17
2019-03-28T22:12:38.481Z,17.63
2019-03-28T22:15:08.380Z,15.90
2019-03-28T22:17:37.717Z,13.80
2019-03-28T22:20:07.290Z,14.27
2019-03-28T22:22:36.858Z,17.63
2019-03-28T22:25:06.822Z,16.40
2019-03-28T22:27:36.158Z,14.90
2019-03-28T22:30:08.059Z,17.27
2019-03-28T22:32:37.379Z,13.50
2019-03-28T22:35:07.552Z,12.93
2019-03-28T22:37:36.874Z,14.60
2019-03-28T22:40:10.330Z,17.13
2019-03-28T22:42:39.270Z,18.03
2019-03-28T22:45:09.594Z,19.50
2019-03-28T22:47:38.924Z,13.63
2019-03-28T22:50:08.389Z,18.40
2019-03-28T22:52:37.730Z,22.00
2019-03-28T22:55:08.298Z,12.27
2019-03-28T22:57:37.626Z,15.67
2019-03-28T23:00:12.291Z,17.10
2019-03-28T23:02:41.611Z,17.90
2019-03-28T23:05:11.486Z,17.27
2019-03-28T23:07:40.976Z,13.53
2019-03-28T23:10:11.362Z,14.20
2019-03-28T23:12:40.690Z,18.63
2019-03-28T23:15:10.989Z,14.77
2019-03-28T23:17:40.576Z,13.23
2019-03-28T23:20:11.241Z,17.17
2019-03-28T23:22:40.574Z,16.17
2019-03-28T23:25:10.850Z,13.97
2019-03-28T23:27:40.271Z,14.90
2019-03-28T23:30:09.937Z,17.43
2019-03-28T23:32:39.266Z,13.87
2019-03-28T23:35:08.899Z,12.97
2019-03-28T23:37:38.282Z,14.03
2019-03-28T23:40:08.438Z,11.63
2019-03-28T23:42:37.766Z,15.07
2019-03-28T23:45:11.336Z,15.07
2019-03-28T23:47:42.310Z,14.23
2019-03-28T23:50:11.778Z,14.87
2019-03-28T23:52:41.117Z,15.27
2019-03-28T23:55:10.509Z,19.90
2019-03-28T23:57:39.833Z,18.87
